Time;durP1;ratioP1;P1;durP2;ratioP2;P2;SDS_P1;SDS_P2;PMS_P1;PMS_P2;Temp;Humidity;BMP_temperature;BMP_pressure;BME280_temperature;BME280_humidity;BME280_pressure;Samples;Min_cycle;Max_cycle;Signal;HPM_P1;HPM_P2
2022/12/09 00:01:04;;;;;;;1.02;0.77;;;;;;;;;;5051551;28;20056;-63
2022/12/09 00:03:34;;;;;;;0.90;0.90;;;;;;;;;;5068224;28;20477;-63
2022/12/09 00:06:06;;;;;;;0.55;0.55;;;;;;;;;;5052744;28;20684;-67
2022/12/09 00:08:35;;;;;;;0.70;0.70;;;;;;;;;;5064985;28;20036;-62
2022/12/09 00:11:03;;;;;;;2.40;0.90;;;;;;;;;;5065981;28;20140;-63
2022/12/09 00:13:32;;;;;;;0.95;0.95;;;;;;;;;;5087522;28;20059;-63
2022/12/09 00:16:00;;;;;;;1.13;1.13;;;;;;;;;;5059287;28;20132;-60
2022/12/09 00:18:29;;;;;;;3.95;0.73;;;;;;;;;;5066902;28;20476;-61
2022/12/09 00:20:58;;;;;;;2.92;1.92;;;;;;;;;;5061026;28;20040;-62
2022/12/09 00:23:26;;;;;;;0.40;0.40;;;;;;;;;;5070957;28;20048;-61
2022/12/09 00:25:57;;;;;;;0.47;0.47;;;;;;;;;;5054920;28;20418;-61
2022/12/09 00:28:26;;;;;;;0.47;0.47;;;;;;;;;;5061549;28;20045;-61
2022/12/09 00:30:54;;;;;;;0.63;0.63;;;;;;;;;;5051984;28;20056;-64
2022/12/09 00:33:22;;;;;;;0.98;0.98;;;;;;;;;;5069547;28;20091;-61
2022/12/09 00:35:51;;;;;;;3.92;0.75;;;;;;;;;;5082403;28;20075;-61
2022/12/09 00:38:20;;;;;;;2.08;1.13;;;;;;;;;;5060186;28;20049;-61
2022/12/09 00:40:48;;;;;;;0.52;0.52;;;;;;;;;;5062762;28;20493;-63
2022/12/09 00:43:17;;;;;;;2.38;0.73;;;;;;;;;;5069604;28;20460;-61
2022/12/09 00:45:45;;;;;;;1.00;0.93;;;;;;;;;;5059977;28;20130;-61
2022/12/09 00:48:14;;;;;;;1.17;0.90;;;;;;;;;;5065322;28;20090;-63
2022/12/09 00:50:42;;;;;;;0.63;0.45;;;;;;;;;;5069917;28;20056;-61
2022/12/09 00:53:10;;;;;;;1.38;0.73;;;;;;;;;;5067205;28;20059;-62
2022/12/09 00:55:40;;;;;;;1.95;1.17;;;;;;;;;;5072044;28;20425;-60
2022/12/09 00:58:09;;;;;;;0.50;0.50;;;;;;;;;;5073993;28;20048;-60
2022/12/09 01:00:37;;;;;;;0.57;0.57;;;;;;;;;;5072127;28;20044;-63
2022/12/09 01:03:05;;;;;;;0.50;0.50;;;;;;;;;;5074044;28;20125;-61
2022/12/09 01:05:35;;;;;;;1.33;0.70;;;;;;;;;;5068793;28;20040;-60
2022/12/09 01:08:03;;;;;;;0.73;0.73;;;;;;;;;;5077156;28;20049;-60
2022/12/09 01:10:33;;;;;;;1.30;0.65;;;;;;;;;;5069608;28;20044;-61
2022/12/09 01:13:03;;;;;;;1.52;0.63;;;;;;;;;;5067494;28;20049;-61
2022/12/09 01:15:31;;;;;;;0.50;0.50;;;;;;;;;;5058405;28;20044;-61
2022/12/09 01:18:00;;;;;;;0.95;0.82;;;;;;;;;;5066318;28;20044;-64
2022/12/09 01:20:28;;;;;;;0.55;0.55;;;;;;;;;;5067548;28;20052;-62
2022/12/09 01:22:56;;;;;;;6.60;0.50;;;;;;;;;;5077282;28;20053;-63
2022/12/09 01:25:25;;;;;;;1.60;1.02;;;;;;;;;;5073939;28;20130;-60
2022/12/09 01:27:53;;;;;;;1.67;0.98;;;;;;;;;;5071332;28;20501;-61
2022/12/09 01:30:23;;;;;;;0.50;0.50;;;;;;;;;;5063853;28;20043;-61
2022/12/09 01:32:51;;;;;;;0.75;0.75;;;;;;;;;;5063060;28;20136;-60
2022/12/09 01:35:20;;;;;;;0.43;0.43;;;;;;;;;;5073520;28;20416;-61
2022/12/09 01:37:48;;;;;;;0.90;0.90;;;;;;;;;;5068965;28;20059;-61
2022/12/09 01:40:18;;;;;;;0.85;0.80;;;;;;;;;;5064698;28;20578;-61
2022/12/09 01:42:46;;;;;;;0.63;0.63;;;;;;;;;;5069737;28;20131;-63
2022/12/09 01:45:48;;;;;;;0.20;0.20;;;;;;;;;;5060911;28;20048;-61
2022/12/09 01:48:18;;;;;;;0.30;0.30;;;;;;;;;;5069323;28;20136;-63
2022/12/09 01:50:49;;;;;;;1.27;0.70;;;;;;;;;;5058052;28;20045;-61
2022/12/09 01:53:18;;;;;;;0.40;0.40;;;;;;;;;;5065415;28;20068;-63
2022/12/09 01:55:47;;;;;;;0.25;0.25;;;;;;;;;;5069634;28;20059;-61
2022/12/09 01:58:16;;;;;;;0.30;0.30;;;;;;;;;;5070422;28;20041;-61
2022/12/09 02:00:45;;;;;;;0.30;0.30;;;;;;;;;;5067554;28;20110;-61
2022/12/09 02:03:13;;;;;;;0.40;0.40;;;;;;;;;;5066857;28;20106;-60
2022/12/09 02:05:44;;;;;;;0.40;0.40;;;;;;;;;;5068195;28;20045;-61
2022/12/09 02:08:13;;;;;;;0.20;0.20;;;;;;;;;;5062727;28;20053;-61
2022/12/09 02:10:44;;;;;;;0.40;0.40;;;;;;;;;;5069388;28;20037;-69
2022/12/09 02:13:19;;;;;;;0.63;0.50;;;;;;;;;;5065631;28;20132;-61
2022/12/09 02:15:47;;;;;;;;;;;;;;;;;;5060170;28;20053;-61
2022/12/09 02:18:19;;;;;;;0.30;0.30;;;;;;;;;;5066039;28;19928;-61
2022/12/09 02:20:53;;;;;;;0.30;0.30;;;;;;;;;;5076225;28;20056;-63
2022/12/09 02:23:24;;;;;;;0.52;0.47;;;;;;;;;;5072593;28;20059;-61
2022/12/09 02:25:55;;;;;;;1.25;1.20;;;;;;;;;;5062301;28;20107;-60
2022/12/09 02:28:46;;;;;;;0.68;0.68;;;;;;;;;;5064138;28;20044;-61
2022/12/09 02:31:18;;;;;;;0.60;0.60;;;;;;;;;;5032921;28;20056;-63
2022/12/09 02:34:01;;;;;;;0.30;0.30;;;;;;;;;;5068105;28;20040;-63
2022/12/09 02:36:34;;;;;;;0.40;0.40;;;;;;;;;;5064696;28;20079;-62
2022/12/09 02:39:03;;;;;;;0.30;0.30;;;;;;;;;;5065760;28;20057;-60
2022/12/09 02:41:33;;;;;;;0.57;0.55;;;;;;;;;;5071970;28;20048;-60
2022/12/09 02:44:03;;;;;;;0.30;0.30;;;;;;;;;;5063954;28;20091;-63
2022/12/09 02:46:32;;;;;;;1.45;0.93;;;;;;;;;;5064261;28;20501;-61
2022/12/09 02:49:01;;;;;;;0.47;0.43;;;;;;;;;;5061221;28;20088;-61
2022/12/09 02:51:31;;;;;;;0.43;0.43;;;;;;;;;;5071008;28;20128;-61
2022/12/09 02:54:03;;;;;;;0.30;0.30;;;;;;;;;;5068972;28;20052;-61
2022/12/09 02:56:32;;;;;;;0.80;0.80;;;;;;;;;;5072618;28;20451;-61
2022/12/09 02:59:00;;;;;;;0.52;0.52;;;;;;;;;;5063411;28;20052;-61
2022/12/09 03:01:33;;;;;;;0.38;0.30;;;;;;;;;;5055883;28;20056;-61
2022/12/09 03:04:02;;;;;;;0.30;0.30;;;;;;;;;;5074348;28;20083;-61
2022/12/09 03:06:33;;;;;;;0.40;0.40;;;;;;;;;;5071334;28;20055;-60
2022/12/09 03:09:05;;;;;;;0.70;0.70;;;;;;;;;;5056170;28;20048;-61
2022/12/09 03:11:34;;;;;;;0.40;0.40;;;;;;;;;;5065267;28;20534;-62
2022/12/09 03:14:04;;;;;;;0.50;0.50;;;;;;;;;;5066364;28;20068;-62
2022/12/09 03:16:35;;;;;;;1.33;0.75;;;;;;;;;;5072745;28;20055;-61
2022/12/09 03:19:05;;;;;;;0.30;0.30;;;;;;;;;;5067077;28;20045;-61
2022/12/09 03:21:36;;;;;;;0.50;0.50;;;;;;;;;;5074084;28;20056;-60
2022/12/09 03:24:08;;;;;;;0.60;0.60;;;;;;;;;;5044897;28;20270;-60
2022/12/09 03:26:37;;;;;;;0.52;0.52;;;;;;;;;;5070336;28;20053;-67
2022/12/09 03:29:09;;;;;;;0.60;0.60;;;;;;;;;;5053399;28;20051;-60
2022/12/09 03:31:38;;;;;;;0.63;0.63;;;;;;;;;;5071122;28;20053;-61
2022/12/09 03:34:07;;;;;;;0.60;0.60;;;;;;;;;;5063427;28;20051;-61
2022/12/09 03:36:38;;;;;;;0.20;0.20;;;;;;;;;;5072912;28;20531;-61
2022/12/09 03:39:10;;;;;;;0.65;0.65;;;;;;;;;;5067360;28;20064;-61
2022/12/09 03:41:38;;;;;;;0.20;0.20;;;;;;;;;;5072081;28;20061;-63
2022/12/09 03:44:09;;;;;;;0.40;0.40;;;;;;;;;;5060768;28;20053;-61
2022/12/09 03:46:38;;;;;;;0.65;0.65;;;;;;;;;;5067146;28;20439;-64
2022/12/09 03:49:06;;;;;;;0.30;0.30;;;;;;;;;;5059138;28;20056;-61
2022/12/09 03:51:36;;;;;;;0.45;0.45;;;;;;;;;;5073521;28;20045;-63
2022/12/09 03:54:07;;;;;;;0.30;0.30;;;;;;;;;;5060102;28;20052;-61
2022/12/09 03:56:39;;;;;;;0.30;0.30;;;;;;;;;;5050618;28;20051;-62
2022/12/09 03:59:10;;;;;;;0.70;0.70;;;;;;;;;;5068679;28;20602;-63
2022/12/09 04:01:40;;;;;;;1.85;0.50;;;;;;;;;;5077033;28;20382;-62
2022/12/09 04:04:08;;;;;;;0.20;0.20;;;;;;;;;;5069851;28;20072;-62
2022/12/09 04:06:37;;;;;;;0.70;0.70;;;;;;;;;;5061957;28;20072;-61
2022/12/09 04:09:06;;;;;;;0.20;0.20;;;;;;;;;;5066433;28;20490;-61
2022/12/09 04:11:34;;;;;;;0.25;0.25;;;;;;;;;;5071913;28;20087;-61
2022/12/09 04:14:04;;;;;;;1.10;1.10;;;;;;;;;;5065500;28;20068;-61
2022/12/09 04:16:39;;;;;;;0.20;0.20;;;;;;;;;;5055767;28;20045;-65
2022/12/09 04:19:08;;;;;;;0.25;0.25;;;;;;;;;;5079958;28;20594;-65
2022/12/09 04:21:36;;;;;;;0.90;0.88;;;;;;;;;;5068808;28;20049;-61
2022/12/09 04:24:04;;;;;;;0.32;0.32;;;;;;;;;;5067587;28;20044;-61
2022/12/09 04:26:33;;;;;;;0.20;0.20;;;;;;;;;;5076579;28;20052;-61
2022/12/09 04:29:01;;;;;;;1.83;0.40;;;;;;;;;;5074017;28;20056;-60
2022/12/09 04:31:31;;;;;;;0.75;0.75;;;;;;;;;;5077877;28;20040;-62
2022/12/09 04:34:01;;;;;;;0.20;0.20;;;;;;;;;;5068890;28;20098;-61
2022/12/09 04:36:36;;;;;;;0.30;0.30;;;;;;;;;;5060730;28;20087;-60
2022/12/09 04:39:05;;;;;;;0.52;0.52;;;;;;;;;;5059124;28;20049;-60
2022/12/09 04:41:34;;;;;;;0.52;0.52;;;;;;;;;;5077895;28;20055;-61
2022/12/09 04:44:02;;;;;;;0.20;0.20;;;;;;;;;;5076486;28;20560;-60
2022/12/09 04:46:32;;;;;;;0.32;0.32;;;;;;;;;;5063076;28;20067;-61
2022/12/09 04:49:00;;;;;;;0.30;0.30;;;;;;;;;;5074691;28;20052;-61
2022/12/09 04:51:29;;;;;;;0.20;0.20;;;;;;;;;;5059125;28;20448;-61
2022/12/09 04:54:06;;;;;;;0.30;0.30;;;;;;;;;;5074143;28;20106;-62
2022/12/09 04:56:34;;;;;;;0.88;0.55;;;;;;;;;;5073728;28;20047;-62
2022/12/09 04:59:02;;;;;;;0.40;0.40;;;;;;;;;;5075740;28;20095;-61
2022/12/09 05:01:32;;;;;;;0.20;0.20;;;;;;;;;;5070623;28;20052;-61
2022/12/09 05:04:01;;;;;;;0.38;0.38;;;;;;;;;;5070918;28;20068;-61
2022/12/09 05:06:30;;;;;;;0.40;0.40;;;;;;;;;;5081579;28;20523;-62
2022/12/09 05:08:59;;;;;;;0.30;0.30;;;;;;;;;;5061531;28;20502;-63
2022/12/09 05:11:27;;;;;;;0.20;0.20;;;;;;;;;;5059626;28;20488;-61
2022/12/09 05:13:56;;;;;;;0.35;0.35;;;;;;;;;;5071188;28;20053;-61
2022/12/09 05:16:25;;;;;;;1.58;0.50;;;;;;;;;;5063770;28;20443;-62
2022/12/09 05:18:55;;;;;;;0.95;0.60;;;;;;;;;;5066206;28;20052;-61
2022/12/09 05:21:24;;;;;;;0.82;0.82;;;;;;;;;;5064739;28;20055;-61
2022/12/09 05:23:52;;;;;;;0.30;0.30;;;;;;;;;;5073144;28;20118;-63
2022/12/09 05:26:22;;;;;;;1.35;0.63;;;;;;;;;;5059073;28;20463;-63
2022/12/09 05:28:51;;;;;;;2.38;0.32;;;;;;;;;;5068732;28;20052;-63
2022/12/09 05:31:20;;;;;;;0.45;0.45;;;;;;;;;;5068337;28;20048;-61
2022/12/09 05:33:51;;;;;;;0.20;0.20;;;;;;;;;;5074707;28;20084;-61
2022/12/09 05:36:22;;;;;;;0.30;0.30;;;;;;;;;;5072417;28;20457;-61
2022/12/09 05:38:52;;;;;;;0.20;0.20;;;;;;;;;;5070074;28;20060;-64
2022/12/09 05:41:21;;;;;;;1.02;0.43;;;;;;;;;;5065396;28;20048;-61
2022/12/09 05:43:50;;;;;;;12.73;0.90;;;;;;;;;;5057359;28;20488;-63
2022/12/09 05:46:19;;;;;;;0.30;0.30;;;;;;;;;;5056740;28;20485;-62
2022/12/09 05:48:47;;;;;;;1.80;0.50;;;;;;;;;;5060647;28;20049;-61
2022/12/09 05:51:17;;;;;;;0.32;0.32;;;;;;;;;;5068596;28;20044;-61
2022/12/09 05:53:47;;;;;;;0.77;0.77;;;;;;;;;;5069506;28;20102;-64
2022/12/09 05:56:16;;;;;;;0.63;0.63;;;;;;;;;;5069620;28;20045;-63
2022/12/09 05:58:45;;;;;;;1.05;1.05;;;;;;;;;;5058981;28;20049;-62
2022/12/09 06:01:14;;;;;;;0.40;0.40;;;;;;;;;;5049855;28;20098;-62
2022/12/09 06:03:42;;;;;;;0.52;0.52;;;;;;;;;;5071360;28;20040;-61
2022/12/09 06:06:13;;;;;;;0.30;0.30;;;;;;;;;;5071870;28;20044;-61
2022/12/09 06:08:43;;;;;;;0.65;0.52;;;;;;;;;;5072979;28;20908;-61
2022/12/09 06:11:15;;;;;;;0.30;0.30;;;;;;;;;;5051232;28;20660;-67
2022/12/09 06:13:44;;;;;;;0.52;0.52;;;;;;;;;;5074073;28;20049;-62
2022/12/09 06:16:13;;;;;;;0.30;0.30;;;;;;;;;;5057884;28;20071;-61
2022/12/09 06:18:42;;;;;;;0.57;0.57;;;;;;;;;;5060541;28;20051;-61
2022/12/09 06:21:12;;;;;;;0.50;0.50;;;;;;;;;;5068128;28;20102;-61
2022/12/09 06:23:42;;;;;;;0.40;0.40;;;;;;;;;;5069067;28;20051;-61
2022/12/09 06:26:16;;;;;;;0.45;0.45;;;;;;;;;;5060207;28;20072;-61
2022/12/09 06:28:45;;;;;;;0.85;0.50;;;;;;;;;;5066395;28;20048;-70
2022/12/09 06:31:13;;;;;;;0.30;0.30;;;;;;;;;;5074031;28;20462;-64
2022/12/09 06:33:42;;;;;;;2.38;0.40;;;;;;;;;;5058804;28;20056;-64
2022/12/09 06:36:23;;;;;;;0.30;0.30;;;;;;;;;;5059285;28;20045;-63
2022/12/09 06:38:52;;;;;;;0.47;0.45;;;;;;;;;;5063790;28;20558;-61
2022/12/09 06:41:22;;;;;;;0.50;0.50;;;;;;;;;;5060863;28;20041;-63
2022/12/09 06:43:51;;;;;;;0.47;0.47;;;;;;;;;;5081631;28;20079;-63
2022/12/09 06:46:21;;;;;;;1.15;0.70;;;;;;;;;;5068144;28;20045;-61
2022/12/09 06:48:51;;;;;;;0.30;0.30;;;;;;;;;;5065491;28;20044;-61
2022/12/09 06:51:20;;;;;;;0.28;0.28;;;;;;;;;;5061321;28;20090;-62
2022/12/09 06:53:49;;;;;;;0.38;0.38;;;;;;;;;;5053350;28;20056;-65
2022/12/09 06:56:18;;;;;;;0.50;0.50;;;;;;;;;;5067259;28;20051;-63
2022/12/09 06:58:48;;;;;;;1.30;0.50;;;;;;;;;;5071011;28;20111;-61
2022/12/09 07:01:18;;;;;;;0.95;0.68;;;;;;;;;;5061601;28;20060;-62
2022/12/09 07:03:48;;;;;;;0.30;0.30;;;;;;;;;;5062315;28;20044;-61
2022/12/09 07:06:21;;;;;;;0.20;0.20;;;;;;;;;;5061334;28;20056;-61
2022/12/09 07:08:50;;;;;;;0.73;0.57;;;;;;;;;;5059815;28;20098;-62
2022/12/09 07:11:19;;;;;;;2.63;0.93;;;;;;;;;;5065363;28;20516;-61
2022/12/09 07:13:49;;;;;;;0.63;0.63;;;;;;;;;;5052018;28;20092;-69
2022/12/09 07:16:18;;;;;;;0.75;0.75;;;;;;;;;;5064359;28;20076;-65
2022/12/09 07:18:46;;;;;;;0.43;0.43;;;;;;;;;;5059284;28;20045;-61
2022/12/09 07:21:16;;;;;;;1.52;0.90;;;;;;;;;;5063856;28;20087;-62
2022/12/09 07:23:45;;;;;;;1.27;1.08;;;;;;;;;;5068248;28;20102;-63
2022/12/09 07:26:14;;;;;;;0.50;0.50;;;;;;;;;;5058251;28;20128;-61
2022/12/09 07:28:43;;;;;;;1.55;1.08;;;;;;;;;;5063622;28;20044;-61
2022/12/09 07:31:19;;;;;;;1.58;1.48;;;;;;;;;;5073434;28;20056;-61
2022/12/09 07:33:49;;;;;;;0.75;0.60;;;;;;;;;;5068035;28;20139;-63
2022/12/09 07:36:18;;;;;;;4.05;1.45;;;;;;;;;;5070842;28;20128;-65
2022/12/09 07:38:49;;;;;;;0.50;0.50;;;;;;;;;;5059040;28;20045;-65
2022/12/09 07:41:18;;;;;;;0.45;0.45;;;;;;;;;;5062020;28;20045;-63
2022/12/09 07:43:48;;;;;;;1.05;1.05;;;;;;;;;;5068891;28;20405;-61
2022/12/09 07:46:17;;;;;;;0.45;0.45;;;;;;;;;;5060673;28;20455;-62
2022/12/09 07:48:47;;;;;;;0.57;0.40;;;;;;;;;;5070396;28;20049;-61
2022/12/09 07:51:17;;;;;;;0.47;0.47;;;;;;;;;;5065125;28;20045;-66
2022/12/09 07:53:46;;;;;;;1.23;1.20;;;;;;;;;;5056483;28;20140;-62
2022/12/09 07:56:16;;;;;;;1.55;0.52;;;;;;;;;;5059379;28;20056;-67
2022/12/09 07:58:46;;;;;;;0.93;0.93;;;;;;;;;;5060618;28;20091;-62
2022/12/09 08:01:16;;;;;;;0.50;0.47;;;;;;;;;;5059607;28;20135;-65
2022/12/09 08:03:45;;;;;;;4.78;0.77;;;;;;;;;;5055163;28;20548;-66
2022/12/09 08:06:17;;;;;;;0.70;0.70;;;;;;;;;;5055575;28;20056;-65
2022/12/09 08:08:46;;;;;;;0.40;0.40;;;;;;;;;;5056932;28;20041;-66
2022/12/09 08:11:16;;;;;;;0.28;0.28;;;;;;;;;;5046268;28;20052;-63
2022/12/09 08:13:45;;;;;;;0.70;0.70;;;;;;;;;;5060244;28;20489;-69
2022/12/09 08:16:15;;;;;;;1.33;1.08;;;;;;;;;;5061375;28;20076;-62
2022/12/09 08:18:45;;;;;;;0.40;0.40;;;;;;;;;;5056153;28;20049;-63
2022/12/09 08:21:16;;;;;;;0.65;0.55;;;;;;;;;;5059079;28;20057;-66
2022/12/09 08:23:45;;;;;;;0.68;0.68;;;;;;;;;;5077483;28;20060;-68
2022/12/09 08:26:14;;;;;;;1.95;1.85;;;;;;;;;;5062408;28;20532;-63
2022/12/09 08:28:43;;;;;;;1.50;1.40;;;;;;;;;;5058432;28;20048;-71
2022/12/09 08:31:13;;;;;;;0.40;0.40;;;;;;;;;;5063593;28;20060;-67
2022/12/09 08:33:43;;;;;;;0.38;0.38;;;;;;;;;;5060484;28;20049;-65
2022/12/09 08:36:13;;;;;;;1.80;1.15;;;;;;;;;;5056107;28;20566;-62
2022/12/09 08:38:43;;;;;;;0.63;0.35;;;;;;;;;;5057958;28;20088;-65
2022/12/09 08:41:13;;;;;;;0.95;0.77;;;;;;;;;;5062169;28;20044;-65
2022/12/09 08:43:42;;;;;;;0.68;0.68;;;;;;;;;;5051075;28;20053;-67
2022/12/09 08:46:11;;;;;;;4.70;0.70;;;;;;;;;;5060053;28;20122;-65
2022/12/09 08:48:41;;;;;;;1.52;0.68;;;;;;;;;;5063477;28;20131;-63
2022/12/09 08:51:10;;;;;;;1.35;1.25;;;;;;;;;;5061453;28;20129;-65
2022/12/09 08:53:40;;;;;;;0.50;0.50;;;;;;;;;;5057086;28;20052;-62
2022/12/09 08:56:12;;;;;;;0.43;0.43;;;;;;;;;;5074955;28;20056;-66
2022/12/09 08:58:41;;;;;;;0.90;0.90;;;;;;;;;;5057761;28;20048;-64
2022/12/09 09:01:15;;;;;;;2.03;0.75;;;;;;;;;;5067683;28;20049;-63
2022/12/09 09:03:44;;;;;;;0.32;0.32;;;;;;;;;;5058234;28;20048;-63
2022/12/09 09:06:14;;;;;;;0.80;0.47;;;;;;;;;;5071198;28;20053;-64
2022/12/09 09:08:43;;;;;;;0.52;0.52;;;;;;;;;;5065280;28;24129;-68
2022/12/09 09:11:16;;;;;;;0.63;0.63;;;;;;;;;;5060799;28;20125;-68
2022/12/09 09:13:46;;;;;;;0.40;0.25;;;;;;;;;;5067644;28;20056;-68
2022/12/09 09:16:16;;;;;;;0.25;0.25;;;;;;;;;;5060281;28;20078;-64
2022/12/09 09:18:46;;;;;;;1.40;1.30;;;;;;;;;;5063397;28;20552;-66
2022/12/09 09:21:16;;;;;;;1.42;1.13;;;;;;;;;;5063773;28;20072;-66
2022/12/09 09:23:45;;;;;;;0.80;0.80;;;;;;;;;;5056061;28;20044;-68
2022/12/09 09:26:17;;;;;;;1.42;1.25;;;;;;;;;;5070692;28;20059;-63
2022/12/09 09:28:47;;;;;;;1.33;0.88;;;;;;;;;;5061862;28;20494;-65
2022/12/09 09:31:17;;;;;;;6.43;0.85;;;;;;;;;;5069460;28;20060;-65
2022/12/09 09:33:47;;;;;;;0.63;0.63;;;;;;;;;;5066630;28;20040;-63
2022/12/09 09:36:19;;;;;;;0.63;0.60;;;;;;;;;;5060273;28;20610;-65
2022/12/09 09:38:49;;;;;;;0.45;0.45;;;;;;;;;;5055659;28;20052;-69
2022/12/09 09:41:24;;;;;;;0.45;0.45;;;;;;;;;;5066079;28;20044;-67
2022/12/09 09:43:54;;;;;;;6.50;1.52;;;;;;;;;;5057988;28;20053;-63
2022/12/09 09:46:28;;;;;;;4.55;0.88;;;;;;;;;;5061176;28;20067;-70
2022/12/09 09:48:58;;;;;;;0.20;0.20;;;;;;;;;;5062853;28;20045;-65
2022/12/09 09:51:27;;;;;;;0.90;0.60;;;;;;;;;;5052648;28;20056;-64
2022/12/09 09:53:56;;;;;;;1.40;0.60;;;;;;;;;;5052977;28;20465;-63
2022/12/09 09:56:35;;;;;;;1.00;0.80;;;;;;;;;;5061967;28;20084;-65
2022/12/09 09:59:13;;;;;;;1.20;1.20;;;;;;;;;;5062959;28;20076;-66
2022/12/09 10:01:46;;;;;;;1.25;1.15;;;;;;;;;;5068910;28;20079;-63
2022/12/09 10:04:19;;;;;;;6.15;2.70;;;;;;;;;;5062942;28;20055;-63
2022/12/09 10:06:52;;;;;;;1.70;1.27;;;;;;;;;;5072483;28;20549;-64
2022/12/09 10:09:23;;;;;;;0.47;0.47;;;;;;;;;;5054655;28;20573;-69
2022/12/09 10:11:59;;;;;;;0.25;0.25;;;;;;;;;;5056145;28;20052;-69
2022/12/09 10:14:35;;;;;;;0.55;0.55;;;;;;;;;;5073714;28;20049;-64
2022/12/09 10:17:20;;;;;;;0.52;0.47;;;;;;;;;;5063077;28;20118;-64
2022/12/09 10:19:50;;;;;;;1.20;1.10;;;;;;;;;;5060653;28;20055;-62
2022/12/09 10:22:22;;;;;;;1.02;0.98;;;;;;;;;;5061857;28;20053;-62
2022/12/09 10:24:52;;;;;;;1.00;1.00;;;;;;;;;;5064698;28;20056;-64
2022/12/09 10:27:27;;;;;;;1.40;1.00;;;;;;;;;;5072720;28;20489;-66
2022/12/09 10:29:58;;;;;;;0.73;0.73;;;;;;;;;;5064299;28;20053;-61
2022/12/09 10:32:30;;;;;;;1.95;1.10;;;;;;;;;;5069202;28;20044;-68
2022/12/09 10:35:00;;;;;;;4.80;1.40;;;;;;;;;;5063153;28;20057;-64
2022/12/09 10:37:30;;;;;;;0.65;0.65;;;;;;;;;;5051004;28;20048;-62
2022/12/09 10:40:02;;;;;;;1.17;1.15;;;;;;;;;;5064614;28;20041;-63
2022/12/09 10:45:22;;;;;;;0.40;0.40;;;;;;;;;;5060080;28;20044;-64
2022/12/09 10:47:52;;;;;;;1.85;1.27;;;;;;;;;;5065906;28;20167;-62
2022/12/09 10:50:32;;;;;;;1.00;1.00;;;;;;;;;;5068856;28;20117;-61
2022/12/09 10:53:05;;;;;;;0.95;0.95;;;;;;;;;;5076634;28;20102;-62
2022/12/09 10:55:36;;;;;;;0.28;0.28;;;;;;;;;;5075522;28;20087;-63
2022/12/09 10:58:16;;;;;;;5.05;1.80;;;;;;;;;;5052255;28;20062;-62
2022/12/09 11:00:58;;;;;;;0.40;0.40;;;;;;;;;;5056660;28;20131;-62
2022/12/09 11:03:29;;;;;;;0.68;0.68;;;;;;;;;;5067087;28;20053;-68
2022/12/09 11:06:00;;;;;;;1.73;1.23;;;;;;;;;;5073599;28;20063;-62
2022/12/09 11:08:29;;;;;;;2.10;0.63;;;;;;;;;;5068713;28;20094;-62
2022/12/09 11:10:58;;;;;;;0.95;0.95;;;;;;;;;;5060181;28;20076;-62
2022/12/09 11:13:44;;;;;;;1.50;1.40;;;;;;;;;;5068913;28;20080;-62
2022/12/09 11:16:13;;;;;;;1.55;0.65;;;;;;;;;;5069277;28;20053;-62
2022/12/09 11:18:43;;;;;;;1.23;1.08;;;;;;;;;;5062094;28;20048;-64
2022/12/09 11:21:33;;;;;;;3.42;1.17;;;;;;;;;;5075384;28;20044;-66
2022/12/09 11:24:01;;;;;;;1.02;0.45;;;;;;;;;;5060385;28;20079;-63
2022/12/09 11:26:33;;;;;;;0.38;0.38;;;;;;;;;;5065830;28;20059;-65
2022/12/09 11:29:05;;;;;;;1.70;1.05;;;;;;;;;;5061806;28;20052;-63
2022/12/09 11:31:38;;;;;;;2.55;1.80;;;;;;;;;;5067185;28;20041;-62
2022/12/09 11:34:15;;;;;;;0.77;0.70;;;;;;;;;;5057893;28;20045;-63
2022/12/09 11:36:47;;;;;;;1.25;1.23;;;;;;;;;;5065446;28;20143;-61
2022/12/09 11:39:22;;;;;;;0.20;0.20;;;;;;;;;;5062873;28;20078;-65
2022/12/09 11:44:49;;;;;;;0.47;0.47;;;;;;;;;;5058931;28;20049;-62
2022/12/09 11:47:22;;;;;;;0.85;0.85;;;;;;;;;;5065088;28;20083;-63
2022/12/09 11:49:52;;;;;;;1.35;1.00;;;;;;;;;;5057311;28;20493;-62
2022/12/09 11:52:31;;;;;;;0.35;0.35;;;;;;;;;;5063771;28;20083;-62
2022/12/09 11:55:11;;;;;;;0.55;0.52;;;;;;;;;;5059094;28;20485;-63
2022/12/09 11:57:43;;;;;;;1.17;1.08;;;;;;;;;;5057286;28;20052;-62
2022/12/09 12:00:19;;;;;;;1.90;1.55;;;;;;;;;;5051894;28;20084;-62
2022/12/09 12:02:50;;;;;;;0.43;0.43;;;;;;;;;;5060411;28;20586;-62
2022/12/09 12:05:22;;;;;;;0.52;0.52;;;;;;;;;;5065417;28;20505;-63
2022/12/09 12:07:57;;;;;;;0.82;0.82;;;;;;;;;;5066023;28;20090;-61
2022/12/09 12:10:28;;;;;;;2.90;0.68;;;;;;;;;;5050226;28;20099;-62
2022/12/09 12:13:00;;;;;;;0.63;0.63;;;;;;;;;;5062154;28;20045;-64
2022/12/09 12:15:32;;;;;;;0.85;0.80;;;;;;;;;;5060956;28;20107;-66
2022/12/09 12:18:04;;;;;;;1.10;0.95;;;;;;;;;;5059722;28;20045;-65
2022/12/09 12:20:40;;;;;;;0.47;0.43;;;;;;;;;;5053180;28;20049;-70
2022/12/09 12:23:20;;;;;;;1.77;1.15;;;;;;;;;;5062361;28;20087;-66
2022/12/09 12:25:53;;;;;;;1.27;1.05;;;;;;;;;;5063886;28;20425;-67
2022/12/09 12:28:27;;;;;;;1.50;1.17;;;;;;;;;;5067794;28;20052;-67
2022/12/09 12:31:02;;;;;;;0.98;0.68;;;;;;;;;;5030208;28;20116;-65
2022/12/09 12:33:40;;;;;;;2.05;1.27;;;;;;;;;;5058994;28;20644;-72
2022/12/09 12:36:31;;;;;;;0.40;0.40;;;;;;;;;;5061819;28;20044;-68
2022/12/09 12:39:05;;;;;;;1.20;0.77;;;;;;;;;;5058660;28;20498;-62
2022/12/09 12:41:38;;;;;;;2.23;1.97;;;;;;;;;;5066842;28;20083;-62
2022/12/09 12:47:04;;;;;;;4.47;3.35;;;;;;;;;;5066808;28;20071;-62
2022/12/09 12:49:41;;;;;;;0.82;0.75;;;;;;;;;;5063416;28;20482;-62
2022/12/09 12:52:15;;;;;;;1.80;0.77;;;;;;;;;;5057997;28;20482;-62
2022/12/09 12:55:13;;;;;;;5.22;1.73;;;;;;;;;;5063250;28;20507;-68
2022/12/09 12:57:44;;;;;;;1.63;1.33;;;;;;;;;;5052414;28;20109;-67
2022/12/09 13:00:15;;;;;;;0.85;0.63;;;;;;;;;;5060752;28;20041;-62
2022/12/09 13:02:47;;;;;;;3.25;1.80;;;;;;;;;;5061116;28;20052;-66
2022/12/09 13:05:24;;;;;;;6.97;2.00;;;;;;;;;;5064337;28;20405;-63
2022/12/09 13:07:55;;;;;;;3.10;1.70;;;;;;;;;;5077687;28;20056;-63
2022/12/09 13:10:29;;;;;;;4.80;2.90;;;;;;;;;;5068925;28;20050;-63
2022/12/09 13:13:00;;;;;;;2.97;1.73;;;;;;;;;;5058916;28;20057;-62
2022/12/09 13:15:32;;;;;;;3.95;2.05;;;;;;;;;;5055398;28;20458;-61
2022/12/09 13:18:12;;;;;;;4.75;2.28;;;;;;;;;;5053128;28;20060;-70
2022/12/09 13:20:45;;;;;;;3.45;1.23;;;;;;;;;;5064500;28;20477;-63
2022/12/09 13:23:25;;;;;;;4.45;3.00;;;;;;;;;;5053152;28;20045;-68
2022/12/09 13:26:01;;;;;;;0.93;0.93;;;;;;;;;;5051991;28;20497;-63
2022/12/09 13:28:36;;;;;;;3.88;2.03;;;;;;;;;;5061262;28;20098;-62
2022/12/09 13:31:08;;;;;;;3.92;3.53;;;;;;;;;;5058183;28;20124;-64
2022/12/09 13:33:42;;;;;;;7.57;2.90;;;;;;;;;;5064484;28;20052;-64
2022/12/09 13:36:15;;;;;;;2.80;1.48;;;;;;;;;;5046024;28;20041;-66
2022/12/09 13:38:44;;;;;;;4.47;1.50;;;;;;;;;;5058653;28;20519;-64
2022/12/09 13:44:20;;;;;;;3.60;2.03;;;;;;;;;;5041614;28;20084;-62
2022/12/09 13:46:49;;;;;;;1.95;1.52;;;;;;;;;;5057676;28;20055;-63
2022/12/09 13:49:20;;;;;;;3.28;2.30;;;;;;;;;;5055519;28;20048;-63
2022/12/09 13:51:50;;;;;;;2.63;2.42;;;;;;;;;;5059688;28;20586;-62
2022/12/09 13:54:20;;;;;;;3.67;2.40;;;;;;;;;;5066973;28;20048;-62
2022/12/09 13:57:03;;;;;;;6.53;2.55;;;;;;;;;;5061393;28;20060;-66
2022/12/09 13:59:38;;;;;;;1.75;1.65;;;;;;;;;;5064913;28;20078;-61
2022/12/09 14:02:13;;;;;;;2.38;1.77;;;;;;;;;;5068165;28;20114;-61
2022/12/09 14:04:46;;;;;;;2.67;2.38;;;;;;;;;;5056295;28;20040;-63
2022/12/09 14:07:21;;;;;;;5.32;3.05;;;;;;;;;;5066705;28;20044;-61
2022/12/09 14:09:51;;;;;;;1.15;0.95;;;;;;;;;;5067552;28;20674;-62
2022/12/09 14:12:36;;;;;;;5.07;2.55;;;;;;;;;;5078023;28;20080;-61
2022/12/09 14:15:27;;;;;;;2.92;1.80;;;;;;;;;;5062829;28;20041;-62
2022/12/09 14:18:04;;;;;;;3.20;2.15;;;;;;;;;;5058637;28;20102;-61
2022/12/09 14:20:39;;;;;;;2.13;1.92;;;;;;;;;;5072279;28;20131;-62
2022/12/09 14:23:13;;;;;;;3.90;1.70;;;;;;;;;;5068258;28;20131;-63
2022/12/09 14:25:46;;;;;;;11.15;2.50;;;;;;;;;;5062171;28;20109;-62
2022/12/09 14:28:26;;;;;;;3.35;2.10;;;;;;;;;;5057165;28;20155;-66
2022/12/09 14:30:57;;;;;;;5.40;2.45;;;;;;;;;;5038384;28;20057;-63
2022/12/09 14:33:35;;;;;;;3.00;2.35;;;;;;;;;;5062517;28;20079;-64
2022/12/09 14:36:06;;;;;;;1.50;1.40;;;;;;;;;;5057073;28;20057;-62
2022/12/09 14:38:37;;;;;;;2.63;2.08;;;;;;;;;;5057075;28;20053;-70
2022/12/09 14:41:28;;;;;;;1.25;0.82;;;;;;;;;;5059924;28;20045;-64
2022/12/09 14:44:03;;;;;;;2.47;1.92;;;;;;;;;;5057867;28;20112;-62
2022/12/09 14:46:33;;;;;;;1.15;0.98;;;;;;;;;;5053455;28;20060;-62
2022/12/09 14:49:03;;;;;;;4.22;1.80;;;;;;;;;;5053085;28;20517;-64
2022/12/09 14:51:36;;;;;;;4.70;1.95;;;;;;;;;;5056379;28;20059;-67
2022/12/09 14:54:06;;;;;;;6.88;2.67;;;;;;;;;;5066535;28;20491;-69
2022/12/09 14:56:35;;;;;;;2.53;1.83;;;;;;;;;;5060093;28;20052;-64
2022/12/09 14:59:06;;;;;;;3.35;1.60;;;;;;;;;;5059345;28;20390;-62
2022/12/09 15:01:51;;;;;;;2.53;2.33;;;;;;;;;;5058631;28;20818;-62
2022/12/09 15:04:19;;;;;;;;;;;;;;;;;;5051081;28;20106;-61
2022/12/09 15:06:50;;;;;;;2.83;2.10;;;;;;;;;;5056462;28;19928;-66
2022/12/09 15:09:18;;;;;;;2.60;1.88;;;;;;;;;;5061258;28;20048;-62
2022/12/09 15:11:47;;;;;;;1.90;1.42;;;;;;;;;;5065285;28;20044;-65
2022/12/09 15:14:27;;;;;;;3.25;1.10;;;;;;;;;;5055362;28;20049;-61
2022/12/09 15:16:57;;;;;;;3.47;2.65;;;;;;;;;;5066000;28;20049;-61
2022/12/09 15:19:27;;;;;;;1.83;1.52;;;;;;;;;;5054914;28;20519;-61